Time;durP1;ratioP1;P1;durP2;ratioP2;P2;SDS_P1;SDS_P2;PMS_P1;PMS_P2;Temp;Humidity;BMP_temperature;BMP_pressure;BME280_temperature;BME280_humidity;BME280_pressure;Samples;Min_cycle;Max_cycle;Signal;HPM_P1;HPM_P2
2023/11/25 00:00:22;;;;;;;5.70;2.53;;;2.10;99.90;;;;;;5117886;28;20250;-38
2023/11/25 00:02:48;;;;;;;3.03;2.20;;;2.00;99.90;;;;;;5117297;28;20259;-37
2023/11/25 00:05:15;;;;;;;3.60;1.80;;;2.00;99.90;;;;;;5118218;28;20494;-38
2023/11/25 00:07:40;;;;;;;4.10;2.17;;;1.90;99.90;;;;;;5116578;28;20543;-38
2023/11/25 00:10:07;;;;;;;3.27;2.10;;;1.90;99.90;;;;;;5116133;28;20421;-38
2023/11/25 00:12:34;;;;;;;7.70;2.10;;;1.80;1.00;;;;;;5117272;28;20160;-38
2023/11/25 00:15:00;;;;;;;9.27;1.60;;;1.80;1.00;;;;;;5116736;28;20426;-38
2023/11/25 00:17:28;;;;;;;6.87;2.77;;;1.80;1.00;;;;;;5098418;28;20490;-39
2023/11/25 00:19:56;;;;;;;3.77;2.20;;;1.80;1.00;;;;;;5098461;28;20448;-38
2023/11/25 00:22:21;;;;;;;7.40;2.03;;;1.70;1.00;;;;;;5117023;28;20436;-38
2023/11/25 00:24:50;;;;;;;3.60;1.80;;;1.80;1.00;;;;;;5116760;28;20555;-37
2023/11/25 00:27:17;;;;;;;6.80;2.17;;;1.80;1.00;;;;;;5098967;28;20577;-37
2023/11/25 00:29:44;;;;;;;6.30;2.10;;;1.80;1.00;;;;;;5098414;28;20430;-39
2023/11/25 00:32:10;;;;;;;7.33;2.47;;;1.80;1.00;;;;;;5098849;28;20566;-40
2023/11/25 00:34:36;;;;;;;6.17;1.80;;;1.90;1.00;;;;;;5099719;28;20946;-39
2023/11/25 00:37:02;;;;;;;5.53;1.60;;;1.90;99.90;;;;;;5117772;28;20834;-38
2023/11/25 00:39:29;;;;;;;4.53;1.60;;;2.00;99.90;;;;;;5116753;28;20516;-39
2023/11/25 00:41:55;;;;;;;4.73;1.67;;;2.00;99.90;;;;;;5117011;28;20753;-38
2023/11/25 00:44:21;;;;;;;5.37;1.80;;;2.10;99.90;;;;;;5117094;28;20453;-38
2023/11/25 00:46:47;;;;;;;3.57;1.67;;;2.10;99.90;;;;;;5097876;28;20429;-39
2023/11/25 00:49:15;;;;;;;3.80;1.50;;;2.10;99.90;;;;;;5098566;28;20824;-40
2023/11/25 00:51:42;;;;;;;3.93;1.63;;;2.20;44.40;;;;;;5098555;28;20168;-38
2023/11/25 00:54:08;;;;;;;3.10;1.20;;;2.20;15.00;;;;;;5116539;28;20548;-41
2023/11/25 00:56:34;;;;;;;5.80;1.50;;;2.20;1.00;;;;;;5117242;28;20417;-38
2023/11/25 00:59:00;;;;;;;3.97;1.30;;;2.30;1.00;;;;;;5098885;28;20589;-41
2023/11/25 01:01:26;;;;;;;3.90;1.97;;;2.30;1.00;;;;;;5117564;28;20449;-40
2023/11/25 01:03:52;;;;;;;4.33;1.60;;;2.30;1.00;;;;;;5099696;28;20199;-41
2023/11/25 01:06:18;;;;;;;5.23;1.77;;;2.30;1.00;;;;;;5117496;28;20209;-40
2023/11/25 01:08:43;;;;;;;1.97;1.47;;;2.30;1.00;;;;;;5117746;28;20501;-40
2023/11/25 01:11:09;;;;;;;4.30;1.20;;;2.30;1.00;;;;;;5117510;28;20179;-40
2023/11/25 01:13:35;;;;;;;2.43;1.53;;;2.30;1.00;;;;;;5116300;28;20179;-41
2023/11/25 01:16:00;;;;;;;4.03;1.63;;;2.30;1.00;;;;;;5115434;28;20182;-40
2023/11/25 01:18:27;;;;;;;5.13;1.93;;;2.30;1.00;;;;;;5116800;28;20171;-39
2023/11/25 01:20:56;;;;;;;14.53;8.20;;;2.30;99.90;;;;;;5114568;28;20186;-39
2023/11/25 01:23:27;;;;;;;21.67;11.20;;;2.30;99.90;;;;;;5115405;28;20905;-42
2023/11/25 01:25:54;;;;;;;15.67;8.13;;;2.30;6.20;;;;;;5113814;28;20510;-39
2023/11/25 01:28:21;;;;;;;9.13;4.40;;;2.30;1.00;;;;;;5115827;28;20444;-39
2023/11/25 01:30:46;;;;;;;4.10;2.30;;;2.30;1.00;;;;;;5115606;28;20405;-38
2023/11/25 01:33:12;;;;;;;5.17;2.73;;;2.20;91.90;;;;;;5115176;28;20413;-40
2023/11/25 01:35:39;;;;;;;5.87;2.57;;;2.20;99.90;;;;;;5117451;28;20183;-39
2023/11/25 01:38:05;;;;;;;2.70;2.20;;;2.20;99.90;;;;;;5116267;28;20180;-38
2023/11/25 01:40:32;;;;;;;4.40;2.10;;;2.20;99.90;;;;;;5115679;28;20556;-36
2023/11/25 01:42:57;;;;;;;4.63;2.00;;;2.20;83.30;;;;;;5115766;28;20546;-37
2023/11/25 01:45:24;;;;;;;3.70;1.87;;;2.20;1.00;;;;;;5115999;28;20823;-38
2023/11/25 01:47:52;;;;;;;7.70;1.30;;;2.20;1.00;;;;;;5116613;28;20176;-37
2023/11/25 01:50:18;;;;;;;7.60;1.80;;;2.10;1.00;;;;;;5097430;28;20429;-38
2023/11/25 01:52:44;;;;;;;3.17;1.83;;;2.10;99.90;;;;;;5094416;28;20578;-38
2023/11/25 01:55:11;;;;;;;4.73;1.27;;;2.10;99.90;;;;;;5094619;28;20430;-38
2023/11/25 01:57:36;;;;;;;4.20;1.60;;;2.10;99.90;;;;;;5092757;28;20419;-38
2023/11/25 02:00:07;;;;;;;2.63;1.43;;;2.00;99.90;;;;;;5093492;28;20495;-38
2023/11/25 02:02:37;;;;;;;5.87;1.43;;;2.10;99.90;;;;;;5092349;28;20188;-38
2023/11/25 02:05:03;;;;;;;4.10;1.40;;;2.00;28.30;;;;;;5093459;28;20423;-37
2023/11/25 02:07:29;;;;;;;4.80;1.83;;;2.10;1.00;;;;;;5093828;28;20425;-38
2023/11/25 02:09:55;;;;;;;3.10;1.47;;;2.00;99.90;;;;;;5094687;28;20732;-38
2023/11/25 02:12:21;;;;;;;7.30;1.43;;;2.10;1.00;;;;;;5094194;28;20172;-38
2023/11/25 02:14:47;;;;;;;4.40;2.40;;;2.00;1.00;;;;;;5093310;28;20862;-39
2023/11/25 02:17:16;;;;;;;4.33;1.53;;;2.00;1.00;;;;;;5094736;28;20422;-37
2023/11/25 02:19:43;;;;;;;3.80;1.67;;;2.00;1.00;;;;;;5094781;28;20526;-38
2023/11/25 02:22:12;;;;;;;3.70;1.40;;;2.00;1.00;;;;;;5094730;28;20953;-39
2023/11/25 02:24:37;;;;;;;3.47;1.80;;;2.00;55.10;;;;;;5095376;28;20457;-38
2023/11/25 02:27:05;;;;;;;2.40;2.00;;;2.00;44.00;;;;;;5096451;28;20437;-39
2023/11/25 02:29:32;;;;;;;2.63;1.80;;;2.00;99.90;;;;;;5095444;28;20717;-38
2023/11/25 02:32:04;;;;;;;7.00;2.07;;;2.00;9.30;;;;;;5094889;28;20422;-38
2023/11/25 02:34:30;;;;;;;4.87;1.33;;;2.00;81.00;;;;;;5094535;28;20518;-38
2023/11/25 02:36:57;;;;;;;8.87;1.87;;;1.90;99.90;;;;;;5096690;28;20414;-38
2023/11/25 02:39:23;;;;;;;3.30;1.40;;;1.90;99.90;;;;;;5103968;28;20236;-39
2023/11/25 02:41:50;;;;;;;4.67;1.70;;;1.90;99.90;;;;;;5104309;28;20541;-38
2023/11/25 02:44:19;;;;;;;2.30;1.30;;;1.90;1.00;;;;;;5104326;28;20951;-47
2023/11/25 02:46:46;;;;;;;3.70;1.37;;;1.90;99.90;;;;;;5102359;28;20418;-40
2023/11/25 02:49:12;;;;;;;4.60;1.97;;;1.90;99.90;;;;;;5099362;28;20418;-38
2023/11/25 02:51:38;;;;;;;11.80;2.30;;;1.90;99.90;;;;;;5099736;28;20476;-38
2023/11/25 02:54:07;;;;;;;7.20;1.87;;;1.90;99.90;;;;;;5118300;28;20469;-39
2023/11/25 02:56:33;;;;;;;6.30;2.27;;;1.90;99.90;;;;;;5119610;28;20507;-38
2023/11/25 02:58:58;;;;;;;7.50;1.87;;;1.90;99.90;;;;;;5118519;28;20520;-39
2023/11/25 03:01:29;;;;;;;4.60;1.63;;;1.90;1.00;;;;;;5118852;28;20802;-39
2023/11/25 03:03:54;;;;;;;6.00;2.17;;;1.90;1.00;;;;;;5120748;28;20191;-40
2023/11/25 03:06:22;;;;;;;4.07;1.70;;;2.00;1.00;;;;;;5106171;28;20410;-38
2023/11/25 03:08:48;;;;;;;5.50;1.77;;;1.90;1.00;;;;;;5123000;28;20413;-38
2023/11/25 03:11:20;;;;;;;5.00;1.60;;;1.90;1.00;;;;;;5125258;28;20807;-40
2023/11/25 03:13:46;;;;;;;6.47;2.53;;;1.90;1.00;;;;;;5105291;28;20865;-38
2023/11/25 03:16:12;;;;;;;4.30;2.27;;;1.90;1.00;;;;;;5100639;28;20425;-38
2023/11/25 03:18:38;;;;;;;5.30;2.63;;;1.90;99.90;;;;;;5119193;28;20426;-40
2023/11/25 03:21:04;;;;;;;5.20;2.40;;;1.90;99.90;;;;;;5118492;28;20779;-38
2023/11/25 03:23:29;;;;;;;2.30;2.00;;;1.90;99.90;;;;;;5117645;28;20218;-38
2023/11/25 03:25:55;;;;;;;4.30;2.20;;;1.90;99.90;;;;;;5118065;28;20581;-38
2023/11/25 03:29:04;;;;;;;4.63;2.50;;;1.90;99.90;;;;;;5118720;28;20182;-41
2023/11/25 03:31:29;;;;;;;7.00;2.80;;;1.90;99.90;;;;;;5097475;28;20231;-37
2023/11/25 03:33:55;;;;;;;4.07;2.33;;;1.90;99.90;;;;;;5117160;28;20922;-40
2023/11/25 03:36:21;;;;;;;4.50;2.40;;;1.90;99.90;;;;;;5117028;28;20176;-39
2023/11/25 03:38:46;;;;;;;4.17;1.90;;;1.90;1.00;;;;;;5116016;28;20245;-39
2023/11/25 03:41:12;;;;;;;7.50;2.33;;;1.80;1.00;;;;;;5117326;28;20179;-39
2023/11/25 03:43:38;;;;;;;4.90;2.83;;;1.80;1.00;;;;;;5117025;28;20589;-40
2023/11/25 03:46:04;;;;;;;4.90;3.00;;;1.80;1.00;;;;;;5117188;28;20491;-39
2023/11/25 03:48:30;;;;;;;4.00;2.20;;;1.80;1.00;;;;;;5117686;28;20583;-38
2023/11/25 03:50:55;;;;;;;6.60;3.40;;;1.80;1.00;;;;;;5116588;28;20402;-39
2023/11/25 03:53:21;;;;;;;3.80;2.57;;;1.80;1.00;;;;;;5118374;28;20800;-40
2023/11/25 03:55:47;;;;;;;5.53;2.53;;;1.80;1.00;;;;;;5117991;28;20182;-38
2023/11/25 03:58:13;;;;;;;4.03;1.90;;;1.70;1.00;;;;;;5117133;28;20422;-40
2023/11/25 04:00:38;;;;;;;5.17;2.03;;;1.70;1.00;;;;;;5117488;28;20472;-39
2023/11/25 04:03:04;;;;;;;3.37;2.13;;;1.70;99.90;;;;;;5117779;28;20211;-38
2023/11/25 04:05:30;;;;;;;5.03;2.17;;;1.70;1.00;;;;;;5116962;28;20259;-38
2023/11/25 04:07:56;;;;;;;3.60;1.90;;;1.70;99.90;;;;;;5116770;28;20187;-38
2023/11/25 04:10:21;;;;;;;6.23;2.10;;;1.60;99.90;;;;;;5116880;28;20417;-38
2023/11/25 04:12:48;;;;;;;2.90;2.07;;;1.60;99.90;;;;;;5117853;28;20252;-37
2023/11/25 04:15:19;;;;;;;11.13;2.50;;;1.60;99.90;;;;;;5117245;28;20171;-39
2023/11/25 04:17:45;;;;;;;3.67;1.70;;;1.60;99.90;;;;;;5116102;28;20690;-39
2023/11/25 04:20:13;;;;;;;6.20;1.80;;;1.60;99.90;;;;;;5116713;28;20505;-37
2023/11/25 04:22:46;;;;;;;6.30;2.33;;;1.50;99.90;;;;;;5116032;28;20544;-38
2023/11/25 04:25:12;;;;;;;5.67;1.90;;;1.60;20.10;;;;;;5117545;28;20839;-41
2023/11/25 04:27:42;;;;;;;4.10;1.60;;;1.50;99.90;;;;;;5117564;28;20668;-38
2023/11/25 04:30:11;;;;;;;3.63;1.90;;;1.40;99.90;;;;;;5117196;28;20470;-38
2023/11/25 04:32:43;;;;;;;6.83;2.27;;;1.40;99.90;;;;;;5117175;28;20435;-39
2023/11/25 04:35:08;;;;;;;4.03;1.70;;;1.30;1.00;;;;;;5117350;28;20516;-38
2023/11/25 04:37:35;;;;;;;4.37;2.07;;;1.30;1.00;;;;;;5116566;28;20464;-38
2023/11/25 04:40:01;;;;;;;5.23;1.53;;;1.30;1.00;;;;;;5116529;28;20422;-37
2023/11/25 04:42:26;;;;;;;7.37;3.37;;;1.30;1.00;;;;;;5117215;28;20681;-38
2023/11/25 04:44:52;;;;;;;3.67;1.70;;;1.30;1.00;;;;;;5117162;28;20421;-38
2023/11/25 04:47:18;;;;;;;5.20;2.30;;;1.30;1.00;;;;;;5116215;28;20264;-40
2023/11/25 04:49:43;;;;;;;5.33;1.50;;;1.20;1.00;;;;;;5116409;28;20572;-38
2023/11/25 04:52:09;;;;;;;4.30;2.33;;;1.20;1.00;;;;;;5115417;28;20176;-38
2023/11/25 04:54:35;;;;;;;3.63;1.60;;;1.10;4.00;;;;;;5114890;28;20198;-38
2023/11/25 04:57:01;;;;;;;5.70;1.63;;;1.10;1.00;;;;;;5116073;28;20216;-41
2023/11/25 04:59:28;;;;;;;7.90;2.33;;;1.10;34.90;;;;;;5116290;28;20402;-39
2023/11/25 05:01:54;;;;;;;5.40;1.97;;;1.10;36.80;;;;;;5115938;28;20695;-37
2023/11/25 05:04:20;;;;;;;4.53;1.63;;;1.10;99.90;;;;;;5116028;28;20469;-40
2023/11/25 05:06:46;;;;;;;6.57;1.60;;;1.10;99.90;;;;;;5114931;28;20509;-39
2023/11/25 05:09:13;;;;;;;4.50;1.40;;;1.10;31.40;;;;;;5114774;28;20442;-38
2023/11/25 05:11:39;;;;;;;3.93;3.00;;;1.10;1.00;;;;;;5114896;28;20515;-38
2023/11/25 05:14:05;;;;;;;6.97;1.87;;;1.10;1.00;;;;;;5114959;28;20433;-38
2023/11/25 05:16:31;;;;;;;7.67;1.87;;;1.10;1.00;;;;;;5115246;28;20437;-38
2023/11/25 05:18:57;;;;;;;4.63;2.00;;;1.10;19.90;;;;;;5115393;28;20521;-38
2023/11/25 05:21:22;;;;;;;3.93;1.43;;;1.20;1.00;;;;;;5115524;28;20188;-38
2023/11/25 05:23:49;;;;;;;3.30;1.63;;;1.20;3.10;;;;;;5115231;28;20327;-38
2023/11/25 05:26:15;;;;;;;3.37;1.63;;;1.20;1.00;;;;;;5114519;28;20168;-37
2023/11/25 05:28:41;;;;;;;8.70;1.70;;;1.20;71.50;;;;;;5116240;28;20487;-38
2023/11/25 05:31:06;;;;;;;5.07;1.50;;;1.20;97.00;;;;;;5116653;28;20794;-38
2023/11/25 05:33:33;;;;;;;2.30;1.77;;;1.20;99.90;;;;;;5116189;28;20179;-38
2023/11/25 05:35:59;;;;;;;3.73;1.83;;;1.20;99.90;;;;;;5117164;28;20240;-38
2023/11/25 05:38:26;;;;;;;7.83;2.03;;;1.20;99.90;;;;;;5116631;28;20658;-38
2023/11/25 05:40:52;;;;;;;3.90;1.77;;;1.20;99.90;;;;;;5116032;28;20461;-38
2023/11/25 05:43:19;;;;;;;5.53;1.70;;;1.20;99.90;;;;;;5113986;28;20508;-37
2023/11/25 05:45:46;;;;;;;4.57;2.97;;;1.20;99.90;;;;;;5113837;28;20176;-38
2023/11/25 05:48:12;;;;;;;7.83;2.20;;;1.10;99.90;;;;;;5113354;28;20420;-37
2023/11/25 05:50:42;;;;;;;6.00;1.50;;;1.10;99.90;;;;;;5112892;28;20564;-39
2023/11/25 05:53:07;;;;;;;4.77;1.70;;;1.10;99.90;;;;;;5113998;28;20413;-37
2023/11/25 05:55:33;;;;;;;4.27;1.50;;;1.10;99.90;;;;;;5113928;28;20430;-39
2023/11/25 05:57:59;;;;;;;3.53;1.40;;;1.10;99.90;;;;;;5116958;28;20183;-41
2023/11/25 06:00:25;;;;;;;4.90;1.83;;;1.10;99.90;;;;;;5116520;28;20179;-38
2023/11/25 06:02:52;;;;;;;5.20;1.77;;;1.00;99.90;;;;;;5115124;28;20444;-38
2023/11/25 06:05:18;;;;;;;6.40;1.73;;;1.00;99.90;;;;;;5114283;28;20584;-38
2023/11/25 06:07:44;;;;;;;8.80;2.67;;;1.00;99.90;;;;;;5113696;28;20553;-38
2023/11/25 06:10:10;;;;;;;6.00;2.37;;;1.00;99.90;;;;;;5094585;28;20257;-38
2023/11/25 06:12:37;;;;;;;4.20;1.93;;;0.90;99.90;;;;;;5114045;28;20429;-39
2023/11/25 06:15:03;;;;;;;4.83;1.97;;;0.90;1.00;;;;;;5118883;28;20425;-40
2023/11/25 06:17:29;;;;;;;5.90;2.00;;;0.90;1.00;;;;;;5119264;28;20520;-37
2023/11/25 06:19:54;;;;;;;7.20;3.53;;;0.90;1.00;;;;;;5117537;28;20513;-39
2023/11/25 06:22:21;;;;;;;6.00;2.57;;;0.90;1.00;;;;;;5118457;28;20183;-40
2023/11/25 06:24:47;;;;;;;7.33;3.17;;;1.00;1.00;;;;;;5118425;28;20199;-39
2023/11/25 06:27:12;;;;;;;7.70;3.10;;;1.00;1.00;;;;;;5118036;28;20834;-38
2023/11/25 06:29:41;;;;;;;5.03;2.67;;;1.10;1.00;;;;;;5117623;28;20266;-38
2023/11/25 06:32:07;;;;;;;9.53;2.80;;;1.00;1.00;;;;;;5114939;28;20214;-39
2023/11/25 06:34:33;;;;;;;5.03;1.93;;;1.00;1.00;;;;;;5116814;28;20449;-39
2023/11/25 06:36:58;;;;;;;2.83;2.00;;;1.00;1.00;;;;;;5117205;28;20573;-40
2023/11/25 06:39:26;;;;;;;7.60;1.77;;;1.00;1.00;;;;;;5117377;28;20460;-38
2023/11/25 06:41:53;;;;;;;6.03;2.17;;;1.10;99.90;;;;;;5115370;28;20178;-38
2023/11/25 06:44:19;;;;;;;5.33;2.10;;;1.10;99.90;;;;;;5116317;28;20545;-38
2023/11/25 06:46:45;;;;;;;7.90;2.80;;;1.10;99.90;;;;;;5116347;28;20421;-37
2023/11/25 06:49:12;;;;;;;3.60;2.37;;;1.20;99.90;;;;;;5116636;28;20439;-39
2023/11/25 06:51:40;;;;;;;4.30;2.00;;;1.20;99.90;;;;;;5116999;28;20184;-38
2023/11/25 06:54:06;;;;;;;4.80;1.70;;;1.20;99.90;;;;;;5116123;28;20425;-39
2023/11/25 06:56:33;;;;;;;4.37;2.20;;;1.20;99.90;;;;;;5096027;28;20405;-50
2023/11/25 06:58:58;;;;;;;12.77;4.20;;;1.20;99.90;;;;;;5115349;28;20212;-39
2023/11/25 07:01:24;;;;;;;2.97;2.17;;;1.20;99.90;;;;;;5114607;28;20461;-38
2023/11/25 07:03:50;;;;;;;2.90;2.10;;;1.30;99.90;;;;;;5115579;28;20283;-38
2023/11/25 07:06:17;;;;;;;3.30;1.80;;;1.30;1.00;;;;;;5098092;28;20182;-38
2023/11/25 07:08:44;;;;;;;5.53;1.97;;;1.40;1.00;;;;;;5115477;28;20164;-39
2023/11/25 07:11:16;;;;;;;3.43;1.87;;;1.40;1.00;;;;;;5115738;28;20409;-40
2023/11/25 07:13:42;;;;;;;5.90;2.10;;;1.40;99.90;;;;;;5117325;28;20422;-40
2023/11/25 07:16:08;;;;;;;5.30;2.10;;;1.40;99.90;;;;;;5099912;28;20822;-39
2023/11/25 07:18:34;;;;;;;3.80;2.37;;;1.40;99.90;;;;;;5099959;28;20456;-39
2023/11/25 07:21:00;;;;;;;4.33;2.40;;;1.40;99.90;;;;;;5118106;28;20413;-39
2023/11/25 07:23:26;;;;;;;5.60;3.00;;;1.40;76.90;;;;;;5116929;28;20462;-40
2023/11/25 07:25:52;;;;;;;5.37;2.30;;;1.40;99.90;;;;;;5115393;28;20429;-39
2023/11/25 07:28:18;;;;;;;8.07;2.20;;;1.40;99.90;;;;;;5117679;28;20503;-38
2023/11/25 07:30:44;;;;;;;10.60;2.43;;;1.40;99.90;;;;;;5115237;28;20469;-40
2023/11/25 07:33:10;;;;;;;4.87;2.20;;;1.50;99.90;;;;;;5116617;28;20172;-39
2023/11/25 07:35:39;;;;;;;4.97;3.07;;;1.50;99.90;;;;;;5116340;28;20466;-40
2023/11/25 07:38:05;;;;;;;8.57;3.80;;;1.50;99.90;;;;;;5098026;28;20184;-40
2023/11/25 07:40:31;;;;;;;6.73;2.57;;;1.60;99.90;;;;;;5098608;28;20425;-38
2023/11/25 07:42:58;;;;;;;6.57;2.20;;;1.60;99.90;;;;;;5117750;28;20199;-38
2023/11/25 07:45:25;;;;;;;3.53;2.23;;;1.60;1.00;;;;;;5118107;28;20458;-38
2023/11/25 07:47:54;;;;;;;8.27;3.40;;;1.60;8.10;;;;;;5117132;28;20437;-39
2023/11/25 07:50:21;;;;;;;4.17;2.10;;;1.60;99.90;;;;;;5115653;28;20406;-41
2023/11/25 07:52:47;;;;;;;5.00;2.60;;;1.50;1.00;;;;;;5116068;28;20429;-39
2023/11/25 07:55:12;;;;;;;6.70;2.20;;;1.60;99.90;;;;;;5116001;28;20760;-39
2023/11/25 07:57:39;;;;;;;6.07;2.13;;;1.50;1.00;;;;;;5115289;28;20176;-40
2023/11/25 08:00:08;;;;;;;2.93;1.80;;;1.50;1.00;;;;;;5114075;28;20183;-40
2023/11/25 08:02:33;;;;;;;5.93;2.30;;;1.50;1.80;;;;;;5116034;28;20758;-38
2023/11/25 08:04:59;;;;;;;3.37;1.90;;;1.50;90.40;;;;;;5116129;28;20432;-41
2023/11/25 08:07:24;;;;;;;6.93;2.10;;;1.50;19.10;;;;;;5116561;28;20558;-39
2023/11/25 08:09:51;;;;;;;5.20;2.93;;;1.60;1.00;;;;;;5117537;28;20270;-39
2023/11/25 08:12:17;;;;;;;5.50;1.93;;;1.70;1.00;;;;;;5115999;28;20592;-39
2023/11/25 08:14:43;;;;;;;8.77;2.60;;;1.90;1.00;;;;;;5094255;28;20426;-39
2023/11/25 08:17:08;;;;;;;8.50;2.50;;;2.00;1.00;;;;;;5114226;28;20203;-38
2023/11/25 08:19:34;;;;;;;11.77;4.70;;;2.10;99.90;;;;;;5114915;28;20190;-39
2023/11/25 08:21:59;;;;;;;11.13;4.63;;;2.30;31.60;;;;;;5115660;28;20190;-37
2023/11/25 08:24:25;;;;;;;10.53;6.27;;;2.40;1.00;;;;;;5114249;28;20276;-39
2023/11/25 08:26:52;;;;;;;8.07;3.10;;;2.60;1.00;;;;;;5114197;28;20321;-38
2023/11/25 08:29:18;;;;;;;8.00;2.63;;;2.80;99.90;;;;;;5113836;28;20414;-39
2023/11/25 08:31:44;;;;;;;7.77;3.37;;;2.90;1.00;;;;;;5112246;28;20471;-39
2023/11/25 08:34:11;;;;;;;9.80;6.23;;;3.00;99.90;;;;;;5113744;28;20502;-39
2023/11/25 08:36:44;;;;;;;9.00;3.50;;;3.30;99.90;;;;;;5114102;28;20175;-40
2023/11/25 08:39:13;;;;;;;4.30;2.63;;;3.40;1.00;;;;;;5096800;28;20428;-38
2023/11/25 08:41:43;;;;;;;4.90;2.63;;;3.40;1.00;;;;;;5114817;28;20410;-39
2023/11/25 08:44:12;;;;;;;4.03;2.00;;;3.60;99.90;;;;;;5114409;28;20905;-41
2023/11/25 08:46:39;;;;;;;3.77;1.40;;;3.70;99.90;;;;;;5116568;28;20486;-38
2023/11/25 08:49:06;;;;;;;5.57;1.77;;;3.70;1.00;;;;;;5115323;28;20420;-38
2023/11/25 08:51:32;;;;;;;4.80;2.73;;;3.70;34.30;;;;;;5097507;28;20409;-41
2023/11/25 08:53:57;;;;;;;6.03;2.17;;;3.80;1.00;;;;;;5114124;28;20675;-38
2023/11/25 08:56:25;;;;;;;3.83;1.90;;;3.50;99.90;;;;;;5114861;28;20176;-39
2023/11/25 08:58:50;;;;;;;6.30;2.13;;;3.40;99.90;;;;;;5116052;28;20271;-39
2023/11/25 09:01:16;;;;;;;4.47;1.90;;;3.30;1.00;;;;;;5097537;28;20516;-39
2023/11/25 09:03:42;;;;;;;4.73;2.40;;;3.30;57.10;;;;;;5112078;28;20843;-38
2023/11/25 09:06:09;;;;;;;4.47;2.30;;;3.40;99.90;;;;;;5111759;28;20449;-40
2023/11/25 09:08:35;;;;;;;5.30;2.20;;;3.40;99.90;;;;;;5095880;28;20801;-38
2023/11/25 09:11:01;;;;;;;6.23;1.93;;;3.30;99.90;;;;;;5113033;28;20248;-39
2023/11/25 09:13:27;;;;;;;3.60;1.83;;;3.30;1.00;;;;;;5113830;28;20451;-41
2023/11/25 09:15:52;;;;;;;3.73;1.90;;;3.30;1.00;;;;;;5112688;28;20815;-40
2023/11/25 09:18:18;;;;;;;8.10;2.63;;;3.30;48.00;;;;;;5113727;28;20556;-39
2023/11/25 09:20:44;;;;;;;5.63;2.40;;;3.40;99.90;;;;;;5111949;28;20434;-40
2023/11/25 09:23:11;;;;;;;8.03;2.83;;;3.40;1.00;;;;;;5113537;28;20207;-38
2023/11/25 09:25:36;;;;;;;8.80;3.37;;;3.30;1.00;;;;;;5114253;28;20426;-39
2023/11/25 09:28:03;;;;;;;7.23;2.57;;;3.20;14.60;;;;;;5113091;28;20764;-41
2023/11/25 09:30:29;;;;;;;14.70;6.57;;;4.60;1.00;;;;;;5112618;28;20242;-40
2023/11/25 09:32:55;;;;;;;14.80;4.07;;;6.30;1.00;;;;;;5113013;28;20422;-40
2023/11/25 09:35:22;;;;;;;12.40;3.70;;;5.70;1.00;;;;;;5114137;28;20172;-41
2023/11/25 09:37:48;;;;;;;6.10;2.80;;;5.00;99.90;;;;;;5113538;28;20168;-39
2023/11/25 09:40:14;;;;;;;9.50;2.67;;;4.30;1.00;;;;;;5114039;28;20713;-39
2023/11/25 09:42:42;;;;;;;7.80;3.50;;;4.00;1.00;;;;;;5112211;28;20486;-39
2023/11/25 09:45:09;;;;;;;6.70;3.13;;;4.00;1.00;;;;;;5112704;28;20445;-40
2023/11/25 09:47:40;;;;;;;12.33;4.03;;;4.10;1.00;;;;;;5115701;28;20408;-39
2023/11/25 09:50:09;;;;;;;15.07;6.30;;;4.20;1.00;;;;;;5119074;28;20433;-40
2023/11/25 09:52:42;;;;;;;6.83;4.37;;;4.50;1.00;;;;;;5118409;28;20747;-37
2023/11/25 09:55:09;;;;;;;10.80;3.27;;;4.80;1.00;;;;;;5116128;28;20421;-38
2023/11/25 09:57:35;;;;;;;10.37;5.67;;;4.80;99.90;;;;;;5118946;28;20432;-38
2023/11/25 10:00:01;;;;;;;9.47;3.70;;;4.90;99.90;;;;;;5101296;28;20901;-38
2023/11/25 10:02:29;;;;;;;9.80;3.10;;;5.50;1.00;;;;;;5118776;28;20452;-38
2023/11/25 10:04:55;;;;;;;7.57;2.67;;;6.10;1.00;;;;;;5100361;28;20461;-37
2023/11/25 10:07:21;;;;;;;13.10;3.57;;;6.50;99.90;;;;;;5100247;28;20428;-38
2023/11/25 10:09:46;;;;;;;7.77;2.90;;;7.30;99.90;;;;;;5115066;28;20176;-40
2023/11/25 10:12:13;;;;;;;9.40;2.93;;;6.80;99.90;;;;;;5114560;28;20168;-38
2023/11/25 10:14:46;;;;;;;12.17;4.17;;;5.80;1.00;;;;;;5114297;28;20521;-39
2023/11/25 10:17:21;;;;;;;6.60;2.93;;;6.00;1.00;;;;;;5115883;28;20421;-37
2023/11/25 10:19:48;;;;;;;4.97;2.60;;;6.30;99.90;;;;;;5116692;28;20676;-36
2023/11/25 10:22:14;;;;;;;9.97;2.63;;;6.60;99.90;;;;;;5116379;28;20485;-37
2023/11/25 10:24:49;;;;;;;10.97;3.77;;;6.50;99.90;;;;;;5100042;28;20465;-38
2023/11/25 10:27:19;;;;;;;7.90;2.73;;;6.60;99.90;;;;;;5118375;28;20471;-38
2023/11/25 10:29:49;;;;;;;6.40;2.73;;;6.40;99.90;;;;;;5097652;28;20509;-39
2023/11/25 10:32:15;;;;;;;8.23;2.80;;;6.60;99.90;;;;;;5117193;28;20517;-39
2023/11/25 10:34:41;;;;;;;8.13;3.00;;;7.40;92.40;;;;;;5118265;28;20768;-40
2023/11/25 10:37:06;;;;;;;7.70;2.60;;;8.10;2.80;;;;;;5100049;28;20714;-40
2023/11/25 10:39:36;;;;;;;11.57;3.07;;;8.10;1.00;;;;;;5082626;28;20189;-38
2023/11/25 10:42:07;;;;;;;10.37;2.47;;;8.20;1.00;;;;;;5117661;28;20180;-39
2023/11/25 10:44:34;;;;;;;8.80;2.93;;;7.70;1.00;;;;;;5116623;28;20740;-40
2023/11/25 10:47:02;;;;;;;4.30;2.30;;;7.40;1.00;;;;;;5107355;28;20828;-37
2023/11/25 10:49:31;;;;;;;6.43;2.87;;;6.90;1.00;;;;;;5112250;28;20821;-41
2023/11/25 10:51:57;;;;;;;7.97;2.27;;;6.80;14.00;;;;;;5093967;28;20426;-40
2023/11/25 10:54:26;;;;;;;8.80;2.33;;;7.00;1.00;;;;;;5098983;28;20430;-38
2023/11/25 10:56:54;;;;;;;15.47;4.47;;;7.80;1.00;;;;;;5078267;28;20417;-39
2023/11/25 10:59:20;;;;;;;8.60;3.10;;;9.10;1.00;;;;;;5096432;28;20517;-44
2023/11/25 11:01:47;;;;;;;8.33;2.70;;;9.40;1.00;;;;;;5080463;28;20458;-39
2023/11/25 11:04:30;;;;;;;10.47;3.30;;;9.00;1.00;;;;;;5095958;28;20476;-41
2023/11/25 11:06:59;;;;;;;5.70;2.33;;;8.30;1.00;;;;;;5081350;28;20533;-40
2023/11/25 11:09:27;;;;;;;5.77;2.20;;;7.40;1.00;;;;;;5115846;28;20835;-40
2023/11/25 11:12:06;;;;;;;8.10;2.63;;;6.80;1.00;;;;;;5098207;28;20525;-39
2023/11/25 11:14:43;;;;;;;10.23;2.63;;;6.20;1.00;;;;;;5116010;28;20401;-38
2023/11/25 11:17:36;;;;;;;6.50;2.27;;;5.90;99.90;;;;;;5116367;28;20502;-37
2023/11/25 11:20:05;;;;;;;9.40;4.13;;;6.00;99.90;;;;;;5116048;28;20450;-40
2023/11/25 11:22:31;;;;;;;7.33;2.77;;;6.60;1.00;;;;;;5098423;28;20429;-39
2023/11/25 11:25:12;;;;;;;8.33;3.20;;;6.70;99.90;;;;;;5082866;28;20472;-37
2023/11/25 11:27:46;;;;;;;7.70;2.83;;;7.70;1.00;;;;;;5115924;28;20180;-43
2023/11/25 11:30:27;;;;;;;6.83;2.17;;;9.10;1.00;;;;;;5115220;28;20464;-38
2023/11/25 11:32:52;;;;;;;4.63;2.60;;;9.30;1.00;;;;;;5114593;28;20401;-45
2023/11/25 11:35:21;;;;;;;4.60;2.13;;;9.00;1.00;;;;;;5099191;28;21004;-43
2023/11/25 11:37:49;;;;;;;5.10;2.33;;;8.40;1.00;;;;;;5098535;28;20475;-38
2023/11/25 11:40:15;;;;;;;6.50;1.70;;;8.10;1.00;;;;;;5114625;28;20509;-37
2023/11/25 11:42:48;;;;;;;5.63;5.00;;;6.80;1.00;;;;;;5095167;28;20437;-38
2023/11/25 11:45:18;;;;;;;7.13;6.03;;;6.20;99.90;;;;;;5098892;28;20444;-40
2023/11/25 11:47:57;;;;;;;5.73;3.93;;;5.60;1.00;;;;;;5114596;28;20421;-38
2023/11/25 11:50:32;;;;;;;4.03;3.00;;;5.20;99.90;;;;;;5114679;28;20424;-37
2023/11/25 11:53:01;;;;;;;8.27;2.47;;;4.90;1.00;;;;;;5099135;28;20437;-40
2023/11/25 11:55:35;;;;;;;4.37;1.87;;;4.60;99.90;;;;;;5106228;28;20460;-39
2023/11/25 11:58:15;;;;;;;4.50;1.80;;;4.30;99.90;;;;;;5111997;28;20886;-41
2023/11/25 12:01:02;;;;;;;3.30;2.07;;;4.20;1.00;;;;;;5115763;28;20417;-39
2023/11/25 12:03:32;;;;;;;10.40;2.20;;;3.90;11.40;;;;;;5114725;28;20571;-39
2023/11/25 12:05:58;;;;;;;5.23;1.83;;;3.70;1.00;;;;;;5114154;28;20406;-41
2023/11/25 12:08:24;;;;;;;4.73;2.00;;;3.60;1.00;;;;;;5115649;28;20409;-38
2023/11/25 12:10:51;;;;;;;6.30;2.50;;;3.50;99.90;;;;;;5113389;28;20457;-48
2023/11/25 12:13:28;;;;;;;4.13;1.80;;;3.50;99.90;;;;;;5116017;28;20602;-39
2023/11/25 12:16:03;;;;;;;4.67;1.93;;;3.40;1.00;;;;;;5117083;28;20473;-41
2023/11/25 12:18:34;;;;;;;4.73;1.87;;;3.40;1.00;;;;;;5116596;28;20421;-41
2023/11/25 12:21:04;;;;;;;5.60;1.90;;;3.30;3.80;;;;;;5116947;28;20420;-40
2023/11/25 12:23:34;;;;;;;4.53;2.03;;;3.30;99.90;;;;;;5116718;28;20866;-39
2023/11/25 12:26:01;;;;;;;5.50;2.10;;;3.40;99.90;;;;;;5098672;28;20440;-41
2023/11/25 12:28:28;;;;;;;6.00;2.83;;;3.20;99.90;;;;;;5115956;28;20574;-40
2023/11/25 12:30:53;;;;;;;7.50;3.57;;;3.20;1.00;;;;;;5115876;28;20477;-42
2023/11/25 12:33:19;;;;;;;5.43;3.40;;;3.10;1.00;;;;;;5116409;28;20433;-38
2023/11/25 12:35:45;;;;;;;7.77;2.80;;;3.10;1.00;;;;;;5099565;28;20252;-42
2023/11/25 12:38:12;;;;;;;8.60;2.07;;;3.10;1.00;;;;;;5116935;28;20823;-39
2023/11/25 12:40:39;;;;;;;8.60;2.33;;;3.00;1.00;;;;;;5096785;28;20722;-39
2023/11/25 12:43:10;;;;;;;6.30;2.67;;;2.90;36.90;;;;;;5114885;28;20536;-39
2023/11/25 12:45:36;;;;;;;5.70;2.10;;;2.90;99.00;;;;;;5114481;28;20422;-40
2023/11/25 12:48:05;;;;;;;7.37;3.40;;;2.90;99.90;;;;;;5114998;28;20959;-41
2023/11/25 12:50:30;;;;;;;4.93;2.70;;;2.90;99.90;;;;;;5114400;28;20402;-39
2023/11/25 12:53:07;;;;;;;4.13;2.60;;;3.10;99.90;;;;;;5097072;28;20818;-40
2023/11/25 12:55:39;;;;;;;7.73;3.90;;;3.30;99.90;;;;;;5096844;28;20505;-39
2023/11/25 12:58:10;;;;;;;5.43;3.40;;;3.50;63.60;;;;;;5114874;28;20420;-39
2023/11/25 13:00:36;;;;;;;7.30;2.93;;;3.60;1.00;;;;;;5112375;28;20522;-39